首页
METAR-TAF:

METAR-TAF

机场 :

科罗拉多城, 亞利桑那州, 美国

纬度: 36-57-36N, 经度: 113-00-50W, 海拔: 1486米

当前天气观测

该预报发布于30分钟前的22:15 UTC
风速16节,风向西转西南,有时为26节阵风
温度 39°C
湿度 8%
气压 1013 hPa
能見度: 16.1公里
天空无云

METAR: KAZC 152215Z AUTO 24016G26KT 10SM CLR 39/M01 A2991 RMK AO2

时间: 15:45 (22:45 UTC)


TAF: 丢失

超过4000个机场的气象观测和天气预报(METAR&TAF报告)。

可查询的气象台以黄色和红色小点在地图上表示。

将鼠标移到小点上方,可查看气象台名称。

然后点击查看天气观测和预报。

如需切换地图:点击带黑十字的绿色按钮放大地图;点击带横线的绿色按钮缩小地图;或者点击绿色箭头查看邻近地区的地图。


METAR-TAF: